Time;durP1;ratioP1;P1;durP2;ratioP2;P2;SDS_P1;SDS_P2;PMS_P1;PMS_P2;Temp;Humidity;BMP_temperature;BMP_pressure;BME280_temperature;BME280_humidity;BME280_pressure;Samples;Min_cycle;Max_cycle;Signal;HPM_P1;HPM_P2
2023/11/15 00:00:22;;;;;;;9.30;2.97;;;;;;;19.62;84.00;100795.94;5057488;28;20025;-32
2023/11/15 00:02:47;;;;;;;8.55;3.60;;;;;;;19.61;83.86;100806.13;5059351;28;20025;-32
2023/11/15 00:05:13;;;;;;;10.45;3.53;;;;;;;19.60;84.10;100804.50;5060125;28;20071;-33
2023/11/15 00:07:38;;;;;;;10.75;2.90;;;;;;;19.59;84.22;100805.59;5047843;28;20029;-32
2023/11/15 00:10:04;;;;;;;12.13;3.28;;;;;;;19.56;84.10;100800.69;5041882;28;20028;-32
2023/11/15 00:12:31;;;;;;;9.18;2.72;;;;;;;19.55;84.23;100804.53;5032045;28;20113;-32
2023/11/15 00:14:57;;;;;;;10.55;3.63;;;;;;;19.53;84.55;100809.50;5040373;28;20317;-33
2023/11/15 00:17:22;;;;;;;6.97;2.67;;;;;;;19.52;84.39;100805.09;5037850;28;20029;-35
2023/11/15 00:19:49;;;;;;;11.15;3.40;;;;;;;19.50;84.42;100815.59;5035782;28;20025;-34
2023/11/15 00:22:15;;;;;;;9.27;2.65;;;;;;;19.49;84.70;100827.69;5036683;28;20078;-32
2023/11/15 00:24:41;;;;;;;7.53;3.25;;;;;;;19.48;84.49;100826.84;5053153;28;20799;-33
2023/11/15 00:27:08;;;;;;;9.48;2.80;;;;;;;19.47;84.81;100827.16;5054149;28;20072;-32
2023/11/15 00:29:33;;;;;;;11.93;2.70;;;;;;;19.45;84.64;100841.19;5042562;28;20047;-33
2023/11/15 00:31:59;;;;;;;8.57;2.90;;;;;;;19.45;84.85;100835.69;5061193;28;20104;-33
2023/11/15 00:34:24;;;;;;;10.00;3.40;;;;;;;19.45;85.08;100845.84;5059222;28;20120;-32
2023/11/15 00:36:49;;;;;;;9.05;3.00;;;;;;;19.43;85.04;100843.38;5043640;28;20020;-31
2023/11/15 00:39:15;;;;;;;8.82;3.10;;;;;;;19.43;85.08;100837.88;5046030;28;20103;-33
2023/11/15 00:41:40;;;;;;;8.60;3.20;;;;;;;19.43;85.15;100845.31;5053110;28;20033;-32
2023/11/15 00:44:07;;;;;;;14.80;3.42;;;;;;;19.41;85.29;100859.34;5047328;28;20068;-33
2023/11/15 00:46:34;;;;;;;10.32;3.00;;;;;;;19.41;85.14;100853.84;5048707;28;20032;-32
2023/11/15 00:48:59;;;;;;;9.50;3.30;;;;;;;19.39;85.11;100848.63;5052104;28;20024;-34
2023/11/15 00:51:25;;;;;;;12.38;2.83;;;;;;;19.39;84.92;100862.38;5054131;28;20039;-33
2023/11/15 00:53:50;;;;;;;8.13;2.90;;;;;;;19.39;85.14;100861.56;5045664;28;20163;-31
2023/11/15 00:56:15;;;;;;;9.38;3.00;;;;;;;19.39;85.29;100864.31;5054152;28;20040;-33
2023/11/15 00:58:41;;;;;;;7.43;2.85;;;;;;;19.39;85.25;100875.31;5051430;28;20044;-31
2023/11/15 01:01:10;;;;;;;9.10;2.78;;;;;;;19.39;85.50;100867.06;5043151;28;20021;-35
2023/11/15 01:03:37;;;;;;;11.05;2.97;;;;;;;19.39;85.19;100880.81;5051787;28;20051;-32
2023/11/15 01:06:02;;;;;;;9.18;3.10;;;;;;;19.39;85.47;100875.31;5043373;28;20131;-32
2023/11/15 01:08:28;;;;;;;7.93;2.63;;;;;;;19.39;85.44;100881.63;5044050;28;20028;-33
2023/11/15 01:10:57;;;;;;;9.80;2.78;;;;;;;19.38;85.38;100879.97;5038741;28;20033;-33
2023/11/15 01:13:23;;;;;;;8.30;2.70;;;;;;;19.39;85.52;100883.56;5044344;28;20036;-32
2023/11/15 01:15:50;;;;;;;11.98;3.05;;;;;;;19.40;85.20;100885.19;5046875;28;20032;-33
2023/11/15 01:18:16;;;;;;;8.38;2.78;;;;;;;19.39;85.50;100891.81;5040112;28;20497;-32
2023/11/15 01:20:43;;;;;;;7.70;2.70;;;;;;;19.38;85.30;100890.97;5050297;28;20132;-33
2023/11/15 01:23:08;;;;;;;7.68;2.40;;;;;;;19.39;85.66;100900.84;5048575;28;20028;-33
2023/11/15 01:25:33;;;;;;;9.10;2.72;;;;;;;19.37;85.73;100905.84;5039642;28;20047;-33
2023/11/15 01:27:59;;;;;;;9.15;2.72;;;;;;;19.38;85.75;100903.91;5041995;28;20279;-32
2023/11/15 01:30:25;;;;;;;6.63;2.60;;;;;;;19.35;85.83;100913.53;5048698;28;20030;-34
2023/11/15 01:32:51;;;;;;;7.82;2.60;;;;;;;19.36;85.87;100917.94;5041210;28;20058;-33
2023/11/15 01:35:18;;;;;;;10.38;3.00;;;;;;;19.34;85.72;100922.06;5049166;28;20273;-33
2023/11/15 01:37:48;;;;;;;9.05;3.00;;;;;;;19.33;85.96;100918.47;5037725;28;20036;-34
2023/11/15 01:40:14;;;;;;;6.13;2.42;;;;;;;19.31;86.10;100915.22;5046813;28;20017;-32
2023/11/15 01:42:42;;;;;;;11.05;3.10;;;;;;;19.30;85.89;100930.06;5047524;28;20571;-31
2023/11/15 01:45:08;;;;;;;8.30;2.90;;;;;;;19.30;86.28;100929.22;5055908;28;20026;-32
2023/11/15 01:47:34;;;;;;;10.80;3.10;;;;;;;19.28;86.28;100936.94;5055751;28;20021;-33
2023/11/15 01:49:59;;;;;;;8.20;2.67;;;;;;;19.27;86.39;100938.03;5040262;28;20055;-33
2023/11/15 01:52:25;;;;;;;6.57;2.28;;;;;;;19.26;86.34;100947.38;5061129;28;20032;-32
2023/11/15 01:54:54;;;;;;;9.63;3.20;;;;;;;19.23;86.19;100944.09;5031661;28;20029;-32
2023/11/15 01:57:20;;;;;;;8.13;2.95;;;;;;;19.23;86.39;100951.53;5031130;28;20114;-32
2023/11/15 01:59:46;;;;;;;6.50;2.47;;;;;;;19.22;86.44;100958.13;5042430;28;20017;-33
2023/11/15 02:02:11;;;;;;;9.60;3.17;;;;;;;19.21;86.35;100953.72;5054429;28;20275;-33
2023/11/15 02:04:37;;;;;;;8.73;2.63;;;;;;;19.20;86.79;100952.06;5043890;28;20311;-32
2023/11/15 02:07:02;;;;;;;6.75;2.40;;;;;;;19.20;86.94;100955.66;5043643;28;20119;-32
2023/11/15 02:09:29;;;;;;;8.55;2.67;;;;;;;19.19;86.74;100966.91;5052226;28;20061;-32
2023/11/15 02:11:54;;;;;;;10.32;2.85;;;;;;;19.17;86.73;100966.38;5069584;28;20025;-32
2023/11/15 02:14:20;;;;;;;8.80;2.85;;;;;;;19.17;86.83;100969.13;5049686;28;20489;-31
2023/11/15 02:16:45;;;;;;;9.60;2.80;;;;;;;19.16;86.72;100971.03;5040616;28;20115;-31
2023/11/15 02:19:11;;;;;;;8.05;2.60;;;;;;;19.14;87.05;100977.94;5038027;28;20071;-32
2023/11/15 02:21:36;;;;;;;8.73;2.63;;;;;;;19.15;86.85;100982.31;5060487;28;20488;-32
2023/11/15 02:24:02;;;;;;;8.32;2.40;;;;;;;19.14;86.80;100980.69;5037390;28;20025;-32
2023/11/15 02:26:27;;;;;;;11.95;3.13;;;;;;;19.13;87.24;100982.63;5031065;28;20026;-31
2023/11/15 02:28:54;;;;;;;6.47;2.60;;;;;;;19.13;87.00;100987.25;5033742;28;20492;-31
2023/11/15 02:31:19;;;;;;;8.05;2.60;;;;;;;19.11;87.27;100984.81;5046888;28;20031;-32
2023/11/15 02:33:45;;;;;;;10.25;2.60;;;;;;;19.10;87.32;100990.59;5043192;28;20028;-31
2023/11/15 02:36:10;;;;;;;8.45;3.03;;;;;;;19.09;87.45;100987.00;5044322;28;20033;-32
2023/11/15 02:38:35;;;;;;;9.30;2.78;;;;;;;19.09;87.21;101000.75;5049462;28;20031;-31
2023/11/15 02:41:01;;;;;;;8.50;2.85;;;;;;;19.09;87.27;100995.25;5030554;28;20039;-32
2023/11/15 02:43:26;;;;;;;7.43;2.70;;;;;;;19.08;87.23;100994.44;5039695;28;20393;-32
2023/11/15 02:45:52;;;;;;;6.93;2.70;;;;;;;19.06;87.51;100999.38;5042499;28;20422;-31
2023/11/15 02:48:17;;;;;;;8.82;2.47;;;;;;;19.06;87.75;101002.13;5054065;28;20027;-31
2023/11/15 02:50:43;;;;;;;8.10;2.42;;;;;;;19.04;87.34;100998.84;5060869;28;20532;-33
2023/11/15 02:53:08;;;;;;;7.22;2.30;;;;;;;19.05;87.39;100994.97;5056730;28;20035;-32
2023/11/15 02:55:34;;;;;;;9.27;2.80;;;;;;;19.05;87.54;100994.16;5056388;28;20095;-32
2023/11/15 02:58:00;;;;;;;8.63;2.75;;;;;;;19.05;87.38;100996.91;5038468;28;20144;-32
2023/11/15 03:00:29;;;;;;;9.25;2.60;;;;;;;19.05;87.98;101002.41;5050755;28;20103;-32
2023/11/15 03:02:54;;;;;;;6.15;2.22;;;;;;;19.05;87.64;101005.16;5056395;28;20019;-31
2023/11/15 03:05:19;;;;;;;8.57;2.53;;;;;;;19.05;87.70;100994.97;5054680;28;20036;-32
2023/11/15 03:07:45;;;;;;;7.25;2.58;;;;;;;19.05;87.65;101014.22;5049369;28;20052;-34
2023/11/15 03:10:11;;;;;;;8.13;2.78;;;;;;;19.06;87.97;101004.06;5044807;28;20078;-33
2023/11/15 03:12:36;;;;;;;7.85;2.42;;;;;;;19.04;87.90;101001.59;5027933;28;20041;-32
2023/11/15 03:15:03;;;;;;;8.45;2.78;;;;;;;19.04;87.90;101000.75;5071792;28;20029;-34
2023/11/15 03:17:28;;;;;;;9.27;2.85;;;;;;;19.02;87.90;101006.53;5045382;28;20432;-32
2023/11/15 03:19:55;;;;;;;7.80;2.42;;;;;;;19.01;87.81;101007.63;5058454;28;20031;-34
2023/11/15 03:22:20;;;;;;;9.27;3.00;;;;;;;19.00;87.75;101008.75;5040258;28;20075;-32
2023/11/15 03:24:46;;;;;;;9.20;3.08;;;;;;;19.00;88.03;101019.72;5037863;28;20089;-33
2023/11/15 03:27:12;;;;;;;7.43;2.50;;;;;;;19.00;88.01;101016.16;5040661;28;20520;-33
2023/11/15 03:29:37;;;;;;;7.90;2.38;;;;;;;18.99;88.00;101017.28;5030686;28;20058;-32
2023/11/15 03:32:03;;;;;;;7.57;2.63;;;;;;;18.98;88.13;101016.47;5042633;28;20103;-34
2023/11/15 03:34:33;;;;;;;6.32;2.20;;;;;;;18.97;88.24;101028.53;5035628;28;20175;-32
2023/11/15 03:36:59;;;;;;;6.15;2.13;;;;;;;18.97;88.26;101019.47;5035199;28;20112;-32
2023/11/15 03:39:26;;;;;;;5.82;2.33;;;;;;;18.96;88.31;101026.88;5031561;28;20438;-31
2023/11/15 03:41:52;;;;;;;7.97;2.70;;;;;;;18.97;88.48;101013.97;5043644;28;20401;-33
2023/11/15 03:44:17;;;;;;;9.30;2.97;;;;;;;18.96;88.01;101020.56;5057514;28;20021;-33
2023/11/15 03:46:42;;;;;;;5.68;2.33;;;;;;;18.97;88.81;101030.44;5054034;28;20186;-34
2023/11/15 03:49:08;;;;;;;8.45;2.53;;;;;;;18.95;88.23;101030.72;5028368;28;20025;-32
2023/11/15 03:51:33;;;;;;;9.60;2.75;;;;;;;18.95;88.52;101028.00;5039689;28;20037;-33
2023/11/15 03:53:58;;;;;;;9.25;2.75;;;;;;;18.95;88.56;101030.72;5052246;28;20031;-33
2023/11/15 03:56:24;;;;;;;10.45;2.95;;;;;;;18.95;88.50;101033.47;5051400;28;20112;-33
2023/11/15 03:58:50;;;;;;;5.63;2.25;;;;;;;18.96;88.18;101045.28;5042216;28;20400;-32
2023/11/15 04:01:15;;;;;;;6.78;2.45;;;;;;;18.94;88.29;101029.09;5043738;28;20029;-32
2023/11/15 04:03:40;;;;;;;8.75;2.70;;;;;;;18.94;88.19;101039.25;5045473;28;20036;-32
2023/11/15 04:06:07;;;;;;;10.63;2.60;;;;;;;18.93;88.75;101049.41;5050527;28;20386;-33
2023/11/15 04:08:33;;;;;;;9.40;2.63;;;;;;;18.92;88.55;101056.03;5050020;28;20059;-34
2023/11/15 04:10:58;;;;;;;6.82;2.70;;;;;;;18.92;88.42;101050.53;5033119;28;20022;-33
2023/11/15 04:13:24;;;;;;;9.23;2.83;;;;;;;18.91;88.66;101062.63;5044197;28;20461;-34
2023/11/15 04:15:50;;;;;;;8.43;2.72;;;;;;;18.91;88.27;101065.34;5041994;28;20025;-33
2023/11/15 04:18:16;;;;;;;7.80;2.70;;;;;;;18.90;88.40;101063.69;5045270;28;20029;-33
2023/11/15 04:20:41;;;;;;;9.20;2.33;;;;;;;18.91;88.70;101081.84;5036284;28;20018;-33
2023/11/15 04:23:06;;;;;;;8.80;2.60;;;;;;;18.89;88.59;101073.81;5045937;28;20362;-33
2023/11/15 04:25:32;;;;;;;8.27;2.63;;;;;;;18.89;88.34;101078.50;5039379;28;20060;-32
2023/11/15 04:27:57;;;;;;;6.43;2.17;;;;;;;18.88;88.75;101088.69;5036186;28;20351;-32
2023/11/15 04:30:22;;;;;;;6.55;2.05;;;;;;;18.88;88.77;101079.59;5041673;28;20025;-32
2023/11/15 04:32:48;;;;;;;8.27;2.30;;;;;;;18.87;88.85;101087.03;5038714;28;20419;-34
2023/11/15 04:35:13;;;;;;;10.07;2.50;;;;;;;18.87;88.53;101087.03;5044834;28;20119;-32
2023/11/15 04:37:39;;;;;;;8.10;2.53;;;;;;;18.86;88.58;101088.13;5050484;28;20059;-33
2023/11/15 04:40:09;;;;;;;8.48;2.72;;;;;;;18.87;88.85;101095.25;5054854;28;20033;-33
2023/11/15 04:42:34;;;;;;;6.07;2.10;;;;;;;18.86;88.59;101090.88;5059133;28;20028;-34
2023/11/15 04:45:00;;;;;;;4.68;2.55;;;;;;;18.86;88.87;101082.63;5051709;28;20040;-33
2023/11/15 04:47:25;;;;;;;7.65;2.53;;;;;;;18.85;88.41;101096.66;5059349;28;20032;-37
2023/11/15 04:49:51;;;;;;;6.57;2.10;;;;;;;18.85;88.74;101100.19;5053918;28;20036;-34
2023/11/15 04:52:16;;;;;;;7.45;2.05;;;;;;;18.85;88.65;101102.13;5040033;28;20127;-33
2023/11/15 04:54:42;;;;;;;7.32;2.67;;;;;;;18.85;88.74;101107.63;5049387;28;20135;-32
2023/11/15 04:57:07;;;;;;;4.97;2.10;;;;;;;18.83;88.80;101102.38;5045814;28;20028;-33
2023/11/15 04:59:33;;;;;;;5.75;2.40;;;;;;;18.83;88.83;101107.06;5047746;28;20627;-33
2023/11/15 05:01:59;;;;;;;7.72;2.50;;;;;;;18.83;88.98;101107.88;5047862;28;20086;-32
2023/11/15 05:04:25;;;;;;;8.65;2.80;;;;;;;18.83;89.17;101118.88;5043959;28;20060;-33
2023/11/15 05:06:51;;;;;;;5.63;2.13;;;;;;;18.83;89.07;101107.88;5038542;28;20112;-32
2023/11/15 05:09:17;;;;;;;7.78;2.70;;;;;;;18.83;88.82;101118.06;5027630;28;20052;-32
2023/11/15 05:11:45;;;;;;;5.85;2.20;;;;;;;18.82;89.12;101117.25;5031396;28;20048;-32
2023/11/15 05:14:10;;;;;;;6.30;1.92;;;;;;;18.81;88.91;101112.84;5037197;28;20040;-32
2023/11/15 05:16:35;;;;;;;8.95;2.42;;;;;;;18.82;89.16;101114.50;5033079;28;20393;-33
2023/11/15 05:19:01;;;;;;;5.82;2.40;;;;;;;18.81;89.13;101123.84;5027467;28;20091;-32
2023/11/15 05:21:26;;;;;;;8.10;2.30;;;;;;;18.81;88.79;101123.00;5043888;28;20106;-33
2023/11/15 05:23:52;;;;;;;9.13;2.35;;;;;;;18.80;89.27;101130.41;5046209;28;20336;-33
2023/11/15 05:26:17;;;;;;;7.38;2.20;;;;;;;18.80;88.90;101130.41;5030799;28;20052;-33
2023/11/15 05:28:43;;;;;;;7.22;2.10;;;;;;;18.80;89.20;101127.66;5041084;28;20028;-33
2023/11/15 05:31:09;;;;;;;7.65;2.25;;;;;;;18.79;89.05;101131.50;5036455;28;20059;-33
2023/11/15 05:33:34;;;;;;;6.47;2.50;;;;;;;18.79;89.00;101131.50;5032361;28;20029;-32
2023/11/15 05:36:00;;;;;;;5.45;2.20;;;;;;;18.80;89.23;101137.81;5055120;28;20079;-34
2023/11/15 05:38:26;;;;;;;6.75;1.92;;;;;;;18.79;89.21;101136.19;5044895;28;20074;-34
2023/11/15 05:40:52;;;;;;;6.32;2.33;;;;;;;18.81;89.42;101137.56;5037090;28;20635;-32
2023/11/15 05:43:17;;;;;;;6.50;1.98;;;;;;;18.85;88.99;101135.91;5061104;28;20100;-32
2023/11/15 05:45:45;;;;;;;5.72;2.00;;;;;;;18.90;88.89;101133.16;5042463;28;20032;-32
2023/11/15 05:48:11;;;;;;;5.55;2.20;;;;;;;18.98;88.59;101148.28;5058581;28;20446;-32
2023/11/15 05:50:36;;;;;;;6.95;2.20;;;;;;;19.05;88.13;101153.50;5042018;28;20052;-33
2023/11/15 05:53:02;;;;;;;10.10;2.60;;;;;;;19.13;88.03;101141.97;5045442;28;20033;-33
2023/11/15 05:55:28;;;;;;;7.43;2.20;;;;;;;19.23;87.83;101143.88;5040659;28;20062;-33
2023/11/15 05:57:54;;;;;;;5.82;2.38;;;;;;;19.35;87.27;101143.53;5038373;28;20085;-33
2023/11/15 06:00:20;;;;;;;6.18;2.05;;;;;;;19.45;87.33;101140.78;5046442;28;20056;-32
2023/11/15 06:02:50;;;;;;;6.18;1.95;;;;;;;19.58;86.69;101141.28;5046982;28;20132;-33
2023/11/15 06:05:17;;;;;;;6.85;2.15;;;;;;;19.68;86.42;101142.09;5053949;28;20054;-32
2023/11/15 06:07:43;;;;;;;5.13;2.10;;;;;;;19.80;86.25;101146.44;5046452;28;20390;-33
2023/11/15 06:10:10;;;;;;;6.15;2.00;;;;;;;19.91;85.59;101150.00;5047759;28;20019;-32
2023/11/15 06:12:35;;;;;;;5.90;2.10;;;;;;;19.99;85.48;101147.47;5043033;28;20479;-32
2023/11/15 06:15:08;;;;;;;5.20;2.00;;;;;;;20.11;85.02;101151.81;5044903;28;20077;-33
2023/11/15 06:17:34;;;;;;;4.55;2.00;;;;;;;20.20;85.12;101147.34;5045477;28;20025;-32
2023/11/15 06:19:59;;;;;;;5.53;2.33;;;;;;;20.28;84.46;101155.03;5039811;28;20031;-32
2023/11/15 06:22:25;;;;;;;5.78;2.10;;;;;;;20.40;84.40;101159.34;5045494;28;20032;-32
2023/11/15 06:24:52;;;;;;;5.75;2.00;;;;;;;20.47;83.79;101166.16;5048369;28;20490;-32
2023/11/15 06:27:18;;;;;;;5.90;2.53;;;;;;;20.56;83.95;101160.06;5046914;28;20493;-31
2023/11/15 06:29:54;;;;;;;5.85;2.20;;;;;;;20.63;83.51;101166.88;5056831;28;20211;-32
2023/11/15 06:32:20;;;;;;;7.20;2.58;;;;;;;20.71;83.54;101175.66;5028733;28;20065;-32
2023/11/15 06:34:45;;;;;;;6.00;2.20;;;;;;;20.75;83.01;101179.50;5036381;28;20052;-35
2023/11/15 06:37:13;;;;;;;5.65;2.47;;;;;;;20.76;83.22;101176.47;5033680;28;20511;-31
2023/11/15 06:39:41;;;;;;;5.63;2.30;;;;;;;20.77;83.02;101185.53;5034404;28;20033;-34
2023/11/15 06:42:06;;;;;;;6.55;2.05;;;;;;;20.76;83.15;101181.13;5037258;28;20036;-32
2023/11/15 06:44:32;;;;;;;6.20;2.13;;;;;;;20.74;82.99;101189.69;5053576;28;20028;-33
2023/11/15 06:46:58;;;;;;;6.85;2.38;;;;;;;20.73;83.00;101184.47;5053898;28;20060;-32
2023/11/15 06:49:25;;;;;;;5.25;2.33;;;;;;;20.71;82.85;101190.25;5049192;28;20031;-33
2023/11/15 06:51:51;;;;;;;6.68;1.90;;;;;;;20.69;82.67;101193.28;5040259;28;20377;-33
2023/11/15 06:54:16;;;;;;;7.88;2.85;;;;;;;20.67;83.01;101190.00;5043177;28;20104;-32
2023/11/15 06:56:48;;;;;;;8.07;2.25;;;;;;;20.66;82.70;101196.63;5042385;28;20029;-32
2023/11/15 06:59:14;;;;;;;6.05;2.33;;;;;;;20.65;82.80;101203.22;5043009;28;20037;-32
2023/11/15 07:01:39;;;;;;;4.95;2.00;;;;;;;20.64;82.91;101200.78;5043030;28;20486;-34
2023/11/15 07:04:05;;;;;;;6.72;2.40;;;;;;;20.62;82.59;101212.03;5044120;28;20485;-33
2023/11/15 07:06:32;;;;;;;5.68;2.08;;;;;;;20.60;82.46;101214.28;5042080;28;20039;-33
2023/11/15 07:08:58;;;;;;;5.13;2.10;;;;;;;20.58;82.78;101208.22;5042809;28;20477;-33
2023/11/15 07:11:23;;;;;;;5.60;2.15;;;;;;;20.57;82.79;101208.53;5034647;28;20060;-34
2023/11/15 07:13:48;;;;;;;6.53;2.35;;;;;;;20.54;82.93;101212.66;5030616;28;20033;-33
2023/11/15 07:16:14;;;;;;;5.50;2.10;;;;;;;20.49;82.55;101220.94;5039579;28;20025;-33
2023/11/15 07:18:39;;;;;;;6.75;2.47;;;;;;;20.46;82.94;101219.59;5040130;28;20090;-33
2023/11/15 07:21:05;;;;;;;9.20;2.65;;;;;;;20.41;83.04;101222.38;5042817;28;20545;-32
2023/11/15 07:23:32;;;;;;;5.43;2.30;;;;;;;20.39;82.77;101234.78;5043705;28;20530;-33
2023/11/15 07:25:58;;;;;;;3.97;2.08;;;;;;;20.34;83.33;101236.47;5041936;28;20020;-34
2023/11/15 07:28:24;;;;;;;5.05;2.15;;;;;;;20.31;83.30;101241.72;5044613;28;20099;-33
2023/11/15 07:30:50;;;;;;;8.82;2.03;;;;;;;20.27;83.41;101238.69;5036488;28;20025;-34
2023/11/15 07:33:19;;;;;;;6.97;1.95;;;;;;;20.23;83.38;101234.84;5030030;28;20046;-33
2023/11/15 07:35:46;;;;;;;9.27;2.55;;;;;;;20.19;83.70;101237.34;5051668;28;20033;-32
2023/11/15 07:38:12;;;;;;;5.72;2.30;;;;;;;20.16;83.84;101245.34;5036372;28;20031;-33
2023/11/15 07:40:37;;;;;;;5.93;1.98;;;;;;;20.12;83.99;101242.34;5031416;28;20025;-34
2023/11/15 07:43:05;;;;;;;7.30;2.13;;;;;;;20.10;84.06;101249.22;5060462;28;20709;-33
2023/11/15 07:45:35;;;;;;;6.50;2.00;;;;;;;20.08;84.10;101254.19;5053648;28;20029;-34
2023/11/15 07:48:01;;;;;;;6.97;2.20;;;;;;;20.05;84.16;101255.56;5050621;28;20082;-33
2023/11/15 07:50:27;;;;;;;7.00;2.08;;;;;;;20.01;83.89;101260.81;5041300;28;20058;-34
2023/11/15 07:52:53;;;;;;;7.13;2.30;;;;;;;20.00;84.04;101264.66;5052823;28;20033;-33
2023/11/15 07:55:18;;;;;;;13.10;2.60;;;;;;;19.98;84.33;101260.56;5039865;28;20229;-33
2023/11/15 07:57:44;;;;;;;22.92;3.08;;;;;;;19.99;84.58;101275.97;5040959;28;20056;-34
2023/11/15 08:00:11;;;;;;;37.20;3.58;;;;;;;20.02;85.13;101270.72;5044359;28;20048;-35
2023/11/15 08:02:37;;;;;;;16.77;3.28;;;;;;;20.09;85.65;101273.16;5042116;28;20519;-34
2023/11/15 08:05:07;;;;;;;14.88;3.30;;;;;;;20.14;85.86;101284.16;5047754;28;20044;-34
2023/11/15 08:07:38;;;;;;;14.23;2.88;;;;;;;20.18;85.45;101284.41;5050310;28;20112;-34
2023/11/15 08:10:05;;;;;;;11.23;2.58;;;;;;;20.24;85.19;101286.03;5048554;28;20099;-33
2023/11/15 08:12:35;;;;;;;13.95;2.90;;;;;;;20.27;85.42;101293.75;5049484;28;20068;-35
2023/11/15 08:15:02;;;;;;;10.32;2.63;;;;;;;20.31;85.14;101292.06;5053245;28;20515;-34
2023/11/15 08:17:28;;;;;;;9.60;2.60;;;;;;;20.34;84.79;101299.78;5049484;28;20405;-33
2023/11/15 08:19:54;;;;;;;10.88;2.97;;;;;;;20.38;85.01;101297.28;5043184;28;20135;-34
2023/11/15 08:22:20;;;;;;;17.25;2.97;;;;;;;20.39;84.42;101304.41;5062353;28;20128;-34
2023/11/15 08:24:46;;;;;;;14.98;3.13;;;;;;;20.40;83.94;101303.31;5059332;28;20054;-34
2023/11/15 08:27:12;;;;;;;9.05;3.03;;;;;;;20.42;84.73;101303.84;5050520;28;20120;-34
2023/11/15 08:29:38;;;;;;;11.95;2.65;;;;;;;20.43;84.38;101305.50;5045957;28;20119;-34
2023/11/15 08:32:04;;;;;;;10.40;2.50;;;;;;;20.45;84.54;101307.97;5038388;28;20029;-34
2023/11/15 08:34:30;;;;;;;7.95;2.30;;;;;;;20.46;84.02;101302.19;5040273;28;20360;-33
2023/11/15 08:36:56;;;;;;;10.20;2.72;;;;;;;20.48;84.22;101312.94;5045842;28;20064;-33
2023/11/15 08:39:22;;;;;;;10.20;2.58;;;;;;;20.48;84.26;101315.69;5053839;28;20636;-35
2023/11/15 08:41:48;;;;;;;15.55;2.80;;;;;;;20.50;83.80;101318.97;5046157;28;20021;-34
2023/11/15 08:44:13;;;;;;;12.98;2.90;;;;;;;20.50;84.08;101317.03;5038957;28;20448;-34
2023/11/15 08:46:42;;;;;;;16.33;2.72;;;;;;;20.50;83.76;101322.56;5036792;28;20036;-34
2023/11/15 08:49:15;;;;;;;11.15;2.80;;;;;;;20.50;83.61;101322.56;5043164;28;20041;-34
2023/11/15 08:51:41;;;;;;;11.93;2.55;;;;;;;20.50;84.13;101319.78;5034660;28;20245;-33
2023/11/15 08:54:07;;;;;;;8.18;2.60;;;;;;;20.49;83.53;101320.91;5031668;28;20025;-32
2023/11/15 08:56:33;;;;;;;9.75;2.72;;;;;;;20.48;83.84;101323.94;5036293;28;20086;-32
2023/11/15 08:59:00;;;;;;;12.48;3.38;;;;;;;20.48;83.78;101321.19;5033928;28;20818;-32
2023/11/15 09:01:27;;;;;;;8.02;2.83;;;;;;;20.47;83.68;101330.56;5032265;28;20573;-33
2023/11/15 09:03:53;;;;;;;9.70;3.00;;;;;;;20.46;84.11;101324.19;5042527;28;20465;-33
2023/11/15 09:06:18;;;;;;;8.63;2.53;;;;;;;20.47;83.96;101327.78;5041813;28;20039;-36
2023/11/15 09:08:44;;;;;;;11.40;2.75;;;;;;;20.46;83.80;101332.47;5046597;28;20029;-32
2023/11/15 09:11:12;;;;;;;10.02;2.65;;;;;;;20.46;84.07;101337.97;5041803;28;20052;-33
2023/11/15 09:13:39;;;;;;;12.93;3.70;;;;;;;20.45;84.39;101346.50;5038633;28;20041;-33
2023/11/15 09:16:06;;;;;;;12.93;3.92;;;;;;;20.41;83.85;101340.75;5040636;28;20656;-32
2023/11/15 09:18:31;;;;;;;18.08;4.75;;;;;;;20.37;83.64;101342.44;5038703;28;20038;-33
2023/11/15 09:20:58;;;;;;;27.48;6.88;;;;;;;20.32;84.01;101337.75;5032931;28;20052;-34
2023/11/15 09:23:24;;;;;;;31.92;7.07;;;;;;;20.27;84.28;101343.28;5032049;28;20025;-34
2023/11/15 09:25:53;;;;;;;51.97;8.98;;;;;;;20.23;84.01;101341.38;5034754;28;20052;-35
2023/11/15 09:28:19;;;;;;;39.60;9.15;;;;;;;20.18;83.96;101342.19;5044369;28;20074;-35
2023/11/15 09:30:45;;;;;;;45.15;10.43;;;;;;;20.14;84.40;101333.69;5031030;28;20033;-34
2023/11/15 09:33:16;;;;;;;48.20;12.52;;;;;;;20.11;84.29;101333.41;5038751;28;20017;-36
2023/11/15 09:35:41;;;;;;;55.15;12.25;;;;;;;20.08;84.59;101336.72;5034423;28;20421;-34
2023/11/15 09:38:10;;;;;;;46.67;10.80;;;;;;;20.03;84.42;101341.13;5050420;28;20017;-33
2023/11/15 09:40:36;;;;;;;40.38;11.13;;;;;;;20.00;84.61;101330.69;5044974;28;20382;-33
2023/11/15 09:43:03;;;;;;;44.45;10.23;;;;;;;19.99;84.56;101339.22;5047340;28;20026;-34
2023/11/15 09:45:31;;;;;;;46.83;10.30;;;;;;;19.96;84.80;101334.28;5044232;28;20025;-35
2023/11/15 09:48:00;;;;;;;43.13;10.40;;;;;;;19.95;84.69;101338.13;5043327;28;20033;-34
2023/11/15 09:50:27;;;;;;;43.28;10.07;;;;;;;19.93;85.27;101338.41;5052007;28;20428;-33
2023/11/15 09:52:55;;;;;;;32.03;8.18;;;;;;;19.95;85.87;101351.88;5053821;28;20028;-34
2023/11/15 09:55:22;;;;;;;33.17;8.07;;;;;;;19.95;85.68;101346.38;5045314;28;20028;-34
2023/11/15 09:57:49;;;;;;;30.92;8.40;;;;;;;19.96;86.22;101348.88;5032001;28;20525;-33
2023/11/15 10:00:19;;;;;;;30.27;8.27;;;;;;;19.97;86.17;101345.00;5048044;28;20083;-32
2023/11/15 10:02:47;;;;;;;35.75;8.02;;;;;;;19.97;85.74;101360.69;5045461;28;20028;-33
2023/11/15 10:05:18;;;;;;;34.38;7.45;;;;;;;19.98;85.79;101354.09;5049404;28;20036;-32
2023/11/15 10:07:44;;;;;;;29.45;7.07;;;;;;;19.97;85.84;101355.19;5060100;28;20122;-33
2023/11/15 10:10:36;;;;;;;25.83;6.55;;;;;;;19.97;86.13;101369.75;5050753;28;20673;-33
2023/11/15 10:13:09;;;;;;;19.50;5.75;;;;;;;19.99;85.93;101364.00;5047380;28;20072;-32
2023/11/15 10:15:39;;;;;;;21.98;6.15;;;;;;;19.98;85.94;101359.59;5040369;28;20021;-32
2023/11/15 10:18:08;;;;;;;26.05;5.63;;;;;;;19.97;86.11;101367.00;5055616;28;20396;-33
2023/11/15 10:20:34;;;;;;;24.23;6.70;;;;;;;19.97;85.70;101375.25;5039107;28;20594;-32
2023/11/15 10:23:00;;;;;;;21.48;5.65;;;;;;;19.96;86.02;101362.63;5036135;28;20028;-32
2023/11/15 10:25:25;;;;;;;21.00;5.35;;;;;;;19.95;86.02;101369.22;5047006;28;20264;-34
2023/11/15 10:28:11;;;;;;;20.15;5.70;;;;;;;19.94;86.17;101367.56;5053380;28;20165;-32
2023/11/15 10:30:37;;;;;;;17.65;4.70;;;;;;;19.94;86.24;101364.81;5048058;28;20037;-33
2023/11/15 10:33:16;;;;;;;16.23;4.40;;;;;;;19.94;86.08;101370.31;5034985;28;20554;-32
2023/11/15 10:35:43;;;;;;;18.10;5.20;;;;;;;19.94;85.94;101375.81;5048071;28;20478;-34
2023/11/15 10:38:14;;;;;;;14.50;4.72;;;;;;;19.94;86.13;101380.47;5044908;28;20296;-34
2023/11/15 10:40:41;;;;;;;13.88;4.20;;;;;;;19.94;85.98;101380.47;5045728;28;20511;-35
2023/11/15 10:43:07;;;;;;;15.82;4.47;;;;;;;19.94;86.14;101374.97;5054619;28;20034;-34
2023/11/15 10:45:34;;;;;;;13.02;3.85;;;;;;;19.94;85.91;101380.47;5050736;28;20037;-35
2023/11/15 10:48:11;;;;;;;14.88;4.38;;;;;;;19.95;86.34;101390.41;5064625;28;20020;-35
2023/11/15 10:50:43;;;;;;;12.45;4.07;;;;;;;19.96;85.92;101381.03;5052602;28;20029;-33
2023/11/15 10:53:10;;;;;;;12.40;4.07;;;;;;;19.97;86.16;101379.94;5051096;28;20546;-33
2023/11/15 10:55:37;;;;;;;13.93;4.25;;;;;;;19.98;86.37;101381.59;5052366;28;20060;-33
2023/11/15 10:58:04;;;;;;;9.77;3.42;;;;;;;19.98;86.13;101370.59;5044789;28;20168;-33
2023/11/15 11:00:30;;;;;;;13.60;4.13;;;;;;;20.00;86.48;101365.63;5081682;28;20039;-34
2023/11/15 11:02:57;;;;;;;10.95;3.53;;;;;;;20.02;86.55;101371.69;5047477;28;20114;-34
2023/11/15 11:05:57;;;;;;;12.18;3.67;;;;;;;20.03;86.81;101379.66;5053284;28;20025;-36
2023/11/15 11:08:44;;;;;;;9.77;3.45;;;;;;;20.05;86.19;101362.88;5040556;28;20048;-33
2023/11/15 11:11:10;;;;;;;9.82;2.97;;;;;;;20.06;86.23;101377.44;5050193;28;20504;-34
2023/11/15 11:13:36;;;;;;;9.18;3.35;;;;;;;20.07;86.17;101371.66;5047100;28;20028;-33
2023/11/15 11:16:31;;;;;;;12.00;2.95;;;;;;;20.06;86.21;101375.53;5044011;28;20559;-33
2023/11/15 11:19:21;;;;;;;11.52;3.08;;;;;;;20.07;85.78;101376.34;5031156;28;20045;-32